Edgewood, NM (87015)

7:59 PM MDT on October 25, 2014 (GMT -0600)
Mid-Field Sandia Airpark 1N1 | Change Station
CLOSE
Current Station
Personal Weather Station
Location: Edgewood, NM
Elevation: 6550 ft
Nearby Weather Stations

Elev 6550 ft 35.09 °N, 106.16 °W | Updated 12 minutes ago

Clear
Clear
54.4 °F
Feels Like 54.4 °F
N
4.0
Wind Variable Wind from WSW

Today
High -- | Low -- °F
--% Chance of Precip.
Yesterday
High -- | Low -- °F
Precip. -- in
7:19 AM 6:17 PM
Waxing Crescent, 5% visible
Pressure 30.24 in
Visibility 10.0 miles
Clouds Clear
Dew Point 30 °F
Humidity 40%
Rainfall 0.00 in
Snow Depth Not available.
UV 0.0 out of 12
Pollen 3.60 out of 12
Air Quality Not available.
Flu Activity Sporadic
METAR K0E0 260135Z AUTO 17005KT 10SM CLR 14/M02 A3024 RMK AO2 T01391021

More Conditions Fewer Conditions

Pressure 30.24 in
Visibility 10.0 miles
Clouds Clear
Dew Point 30 °F
Humidity 40%
Rainfall 0.00 in
Snow Depth Not available.
UV 0.0 out of 12
Pollen 3.60 out of 12
Air Quality Not available.
Flu Activity Sporadic
METAR K0E0 260135Z AUTO 17005KT 10SM CLR 14/M02 A3024 RMK AO2 T01391021

More Conditions Fewer Conditions

10-Day Weather Forecast

Almanac

Astronomy

Oct. 25, 2014 Rise Set
Actual Time 7:19 AM MDT 6:17 PM MDT
Civil Twilight 6:53 AM MDT 6:43 PM MDT
Nautical Twilight 6:23 AM MDT 7:13 PM MDT
Astronomical Twilight 5:54 AM MDT 7:42 PM MDT
Moon 8:58 AM MDT (10/25) 7:46 PM MDT (10/25)
Length of Visible Light 11h 49m
Length of Day
10h 58m
Tomorrow will be 2m 0s shorter.
Waxing Crescent, 5% of the Moon is Illuminated
Today
Waxing Crescent
Oct 30
First Quarter
Nov 6
Full
Nov 14
Last Quarter
Nov 22
New

Today's Extremes

State Highs State Lows

Community

WunderPhotos

Upload Photos

1,765,071 photos uploaded!

Nearby

Snow Depth

Station Depth Elevation
Santa Fe 1 in 11445 ft
Quemazon 0 in 9500 ft
Wesner Springs 0 in 11120 ft
Senorita Divide #2 0 in 8600 ft
Gallegos Peak 0 in 9800 ft

Earthquake Activity

City Distance Mag. Time & Date
No recent earthquake activity has been reported nearby.
Minimum magnitude displayed is 2.5.

Coastal Water Temperatures

Place Temperature
No Stations Reporting

Nearby Weather Stations